sensor_id;sensor_type;location;lat;lon;timestamp;P1;durP1;ratioP1;P2;durP2;ratioP2
23169;SDS011;11753;43.144;24.714;2023-01-25T00:00:08;18.88;;;10.98;;
23169;SDS011;11753;43.144;24.714;2023-01-25T00:01:10;16.48;;;10.05;;
23169;SDS011;11753;43.144;24.714;2023-01-25T00:02:12;15.70;;;10.07;;
23169;SDS011;11753;43.144;24.714;2023-01-25T00:03:15;13.90;;;9.27;;
23169;SDS011;11753;43.144;24.714;2023-01-25T00:04:17;16.77;;;9.93;;
23169;SDS011;11753;43.144;24.714;2023-01-25T00:05:23;14.32;;;8.45;;
23169;SDS011;11753;43.144;24.714;2023-01-25T00:06:26;14.75;;;8.90;;
23169;SDS011;11753;43.144;24.714;2023-01-25T00:07:27;15.13;;;9.77;;
23169;SDS011;11753;43.144;24.714;2023-01-25T00:08:28;18.05;;;10.50;;
23169;SDS011;11753;43.144;24.714;2023-01-25T00:09:30;13.18;;;8.23;;
23169;SDS011;11753;43.144;24.714;2023-01-25T00:10:31;14.32;;;8.35;;
23169;SDS011;11753;43.144;24.714;2023-01-25T00:11:33;14.25;;;8.13;;
23169;SDS011;11753;43.144;24.714;2023-01-25T00:12:37;13.50;;;8.38;;
23169;SDS011;11753;43.144;24.714;2023-01-25T00:13:40;11.90;;;7.15;;
23169;SDS011;11753;43.144;24.714;2023-01-25T00:14:42;16.77;;;10.57;;
23169;SDS011;11753;43.144;24.714;2023-01-25T00:15:46;16.75;;;10.45;;
23169;SDS011;11753;43.144;24.714;2023-01-25T00:16:48;16.70;;;9.93;;
23169;SDS011;11753;43.144;24.714;2023-01-25T00:17:51;18.92;;;10.57;;
23169;SDS011;11753;43.144;24.714;2023-01-25T00:18:54;20.83;;;11.38;;
23169;SDS011;11753;43.144;24.714;2023-01-25T00:19:57;17.15;;;10.90;;
23169;SDS011;11753;43.144;24.714;2023-01-25T00:20:58;16.35;;;9.65;;
23169;SDS011;11753;43.144;24.714;2023-01-25T00:22:00;15.70;;;9.30;;
23169;SDS011;11753;43.144;24.714;2023-01-25T00:23:01;15.35;;;8.80;;
23169;SDS011;11753;43.144;24.714;2023-01-25T00:24:03;14.35;;;9.15;;
23169;SDS011;11753;43.144;24.714;2023-01-25T00:25:05;16.52;;;10.20;;
23169;SDS011;11753;43.144;24.714;2023-01-25T00:26:06;18.35;;;10.88;;
23169;SDS011;11753;43.144;24.714;2023-01-25T00:27:07;18.17;;;11.77;;
23169;SDS011;11753;43.144;24.714;2023-01-25T00:28:08;17.85;;;11.85;;
23169;SDS011;11753;43.144;24.714;2023-01-25T00:29:10;18.00;;;12.20;;
23169;SDS011;11753;43.144;24.714;2023-01-25T00:30:13;18.73;;;11.90;;
23169;SDS011;11753;43.144;24.714;2023-01-25T00:31:16;24.15;;;15.32;;
23169;SDS011;11753;43.144;24.714;2023-01-25T00:32:27;17.65;;;11.23;;
23169;SDS011;11753;43.144;24.714;2023-01-25T00:35:21;20.08;;;14.45;;
23169;SDS011;11753;43.144;24.714;2023-01-25T00:37:35;17.10;;;10.50;;
23169;SDS011;11753;43.144;24.714;2023-01-25T00:38:38;18.77;;;10.32;;
23169;SDS011;11753;43.144;24.714;2023-01-25T00:39:40;17.63;;;11.13;;
23169;SDS011;11753;43.144;24.714;2023-01-25T00:40:41;15.40;;;9.88;;
23169;SDS011;11753;43.144;24.714;2023-01-25T00:41:42;17.80;;;9.02;;
23169;SDS011;11753;43.144;24.714;2023-01-25T00:42:45;15.02;;;9.13;;
23169;SDS011;11753;43.144;24.714;2023-01-25T00:43:47;13.77;;;7.72;;
23169;SDS011;11753;43.144;24.714;2023-01-25T00:44:48;13.40;;;8.18;;
23169;SDS011;11753;43.144;24.714;2023-01-25T00:45:51;15.15;;;9.05;;
23169;SDS011;11753;43.144;24.714;2023-01-25T00:46:52;18.98;;;10.20;;
23169;SDS011;11753;43.144;24.714;2023-01-25T00:47:54;16.55;;;9.10;;
23169;SDS011;11753;43.144;24.714;2023-01-25T00:48:56;15.27;;;9.32;;
23169;SDS011;11753;43.144;24.714;2023-01-25T00:49:59;19.00;;;10.10;;
23169;SDS011;11753;43.144;24.714;2023-01-25T00:51:02;15.88;;;8.85;;
23169;SDS011;11753;43.144;24.714;2023-01-25T00:52:04;18.48;;;9.80;;
23169;SDS011;11753;43.144;24.714;2023-01-25T00:53:06;16.70;;;8.57;;
23169;SDS011;11753;43.144;24.714;2023-01-25T00:54:07;14.07;;;8.55;;
23169;SDS011;11753;43.144;24.714;2023-01-25T00:55:09;15.70;;;8.55;;
23169;SDS011;11753;43.144;24.714;2023-01-25T00:56:10;15.10;;;9.05;;
23169;SDS011;11753;43.144;24.714;2023-01-25T00:57:12;15.30;;;9.35;;
23169;SDS011;11753;43.144;24.714;2023-01-25T00:58:13;13.25;;;7.95;;
23169;SDS011;11753;43.144;24.714;2023-01-25T00:59:14;14.68;;;8.75;;
23169;SDS011;11753;43.144;24.714;2023-01-25T01:00:15;13.95;;;8.02;;
23169;SDS011;11753;43.144;24.714;2023-01-25T01:01:16;13.73;;;7.20;;
23169;SDS011;11753;43.144;24.714;2023-01-25T01:02:18;13.35;;;8.23;;
23169;SDS011;11753;43.144;24.714;2023-01-25T01:03:19;11.25;;;7.72;;
23169;SDS011;11753;43.144;24.714;2023-01-25T01:04:21;11.85;;;7.40;;
23169;SDS011;11753;43.144;24.714;2023-01-25T01:05:24;12.45;;;8.00;;
23169;SDS011;11753;43.144;24.714;2023-01-25T01:06:27;12.02;;;7.43;;
23169;SDS011;11753;43.144;24.714;2023-01-25T01:07:28;13.35;;;7.80;;
23169;SDS011;11753;43.144;24.714;2023-01-25T01:08:29;12.65;;;7.70;;
23169;SDS011;11753;43.144;24.714;2023-01-25T01:09:33;11.13;;;7.35;;
23169;SDS011;11753;43.144;24.714;2023-01-25T01:10:34;11.55;;;7.45;;
23169;SDS011;11753;43.144;24.714;2023-01-25T01:11:35;13.55;;;7.97;;
23169;SDS011;11753;43.144;24.714;2023-01-25T01:12:37;14.70;;;8.15;;
23169;SDS011;11753;43.144;24.714;2023-01-25T01:13:39;12.18;;;6.68;;
23169;SDS011;11753;43.144;24.714;2023-01-25T01:14:40;11.45;;;7.32;;
23169;SDS011;11753;43.144;24.714;2023-01-25T01:15:42;13.40;;;7.35;;
23169;SDS011;11753;43.144;24.714;2023-01-25T01:16:43;10.23;;;7.00;;
23169;SDS011;11753;43.144;24.714;2023-01-25T01:17:45;12.13;;;7.32;;
23169;SDS011;11753;43.144;24.714;2023-01-25T01:18:46;12.48;;;6.72;;
23169;SDS011;11753;43.144;24.714;2023-01-25T01:19:48;11.73;;;7.20;;
23169;SDS011;11753;43.144;24.714;2023-01-25T01:20:51;14.77;;;7.45;;
23169;SDS011;11753;43.144;24.714;2023-01-25T01:21:53;9.90;;;6.90;;
23169;SDS011;11753;43.144;24.714;2023-01-25T01:22:55;12.63;;;7.97;;
23169;SDS011;11753;43.144;24.714;2023-01-25T01:23:56;13.02;;;6.97;;
23169;SDS011;11753;43.144;24.714;2023-01-25T01:24:59;14.13;;;7.20;;
23169;SDS011;11753;43.144;24.714;2023-01-25T01:26:02;15.98;;;8.45;;
23169;SDS011;11753;43.144;24.714;2023-01-25T01:27:04;11.73;;;7.07;;
23169;SDS011;11753;43.144;24.714;2023-01-25T01:28:05;10.18;;;6.88;;
23169;SDS011;11753;43.144;24.714;2023-01-25T01:29:06;11.65;;;7.80;;
23169;SDS011;11753;43.144;24.714;2023-01-25T01:30:07;11.55;;;7.38;;
23169;SDS011;11753;43.144;24.714;2023-01-25T01:31:15;10.70;;;7.15;;
23169;SDS011;11753;43.144;24.714;2023-01-25T01:32:18;12.90;;;7.43;;
23169;SDS011;11753;43.144;24.714;2023-01-25T01:33:23;10.98;;;7.20;;
23169;SDS011;11753;43.144;24.714;2023-01-25T01:34:24;13.32;;;7.32;;
23169;SDS011;11753;43.144;24.714;2023-01-25T01:35:27;11.70;;;7.15;;
23169;SDS011;11753;43.144;24.714;2023-01-25T01:36:29;12.40;;;7.20;;
23169;SDS011;11753;43.144;24.714;2023-01-25T01:37:31;12.05;;;6.82;;
23169;SDS011;11753;43.144;24.714;2023-01-25T01:38:33;12.30;;;7.55;;
23169;SDS011;11753;43.144;24.714;2023-01-25T01:39:34;10.75;;;6.53;;
23169;SDS011;11753;43.144;24.714;2023-01-25T01:40:35;10.73;;;6.63;;
23169;SDS011;11753;43.144;24.714;2023-01-25T01:41:37;12.70;;;7.70;;
23169;SDS011;11753;43.144;24.714;2023-01-25T01:43:58;11.85;;;6.78;;
23169;SDS011;11753;43.144;24.714;2023-01-25T01:45:00;13.07;;;7.43;;
23169;SDS011;11753;43.144;24.714;2023-01-25T01:46:02;10.45;;;6.50;;
23169;SDS011;11753;43.144;24.714;2023-01-25T01:50:00;13.15;;;7.53;;
23169;SDS011;11753;43.144;24.714;2023-01-25T01:51:48;11.95;;;7.35;;
23169;SDS011;11753;43.144;24.714;2023-01-25T01:52:44;11.88;;;6.95;;
23169;SDS011;11753;43.144;24.714;2023-01-25T01:53:51;13.15;;;8.13;;
23169;SDS011;11753;43.144;24.714;2023-01-25T01:55:05;28.02;;;14.65;;
23169;SDS011;11753;43.144;24.714;2023-01-25T01:56:12;39.60;;;18.00;;
23169;SDS011;11753;43.144;24.714;2023-01-25T01:57:22;26.13;;;14.32;;
23169;SDS011;11753;43.144;24.714;2023-01-25T01:58:28;16.95;;;9.45;;
23169;SDS011;11753;43.144;24.714;2023-01-25T01:59:32;13.60;;;7.93;;
23169;SDS011;11753;43.144;24.714;2023-01-25T02:00:36;14.45;;;7.75;;
23169;SDS011;11753;43.144;24.714;2023-01-25T02:01:41;13.38;;;7.68;;
23169;SDS011;11753;43.144;24.714;2023-01-25T02:02:44;11.55;;;7.28;;
23169;SDS011;11753;43.144;24.714;2023-01-25T02:03:48;12.98;;;6.93;;
23169;SDS011;11753;43.144;24.714;2023-01-25T02:04:50;12.57;;;6.68;;
23169;SDS011;11753;43.144;24.714;2023-01-25T02:07:09;11.88;;;7.15;;
23169;SDS011;11753;43.144;24.714;2023-01-25T02:08:13;11.15;;;6.15;;
23169;SDS011;11753;43.144;24.714;2023-01-25T02:09:16;11.20;;;6.88;;
23169;SDS011;11753;43.144;24.714;2023-01-25T02:10:21;12.68;;;7.07;;
23169;SDS011;11753;43.144;24.714;2023-01-25T02:11:25;14.68;;;7.68;;
23169;SDS011;11753;43.144;24.714;2023-01-25T02:12:28;12.43;;;7.30;;
23169;SDS011;11753;43.144;24.714;2023-01-25T02:13:30;13.35;;;7.70;;
23169;SDS011;11753;43.144;24.714;2023-01-25T02:14:32;11.70;;;7.00;;
23169;SDS011;11753;43.144;24.714;2023-01-25T02:15:39;15.10;;;7.10;;
23169;SDS011;11753;43.144;24.714;2023-01-25T02:16:46;11.70;;;6.53;;
23169;SDS011;11753;43.144;24.714;2023-01-25T02:17:47;12.68;;;7.28;;
23169;SDS011;11753;43.144;24.714;2023-01-25T02:18:49;15.48;;;8.73;;
23169;SDS011;11753;43.144;24.714;2023-01-25T02:19:53;16.95;;;9.27;;
23169;SDS011;11753;43.144;24.714;2023-01-25T02:21:10;15.77;;;8.02;;
23169;SDS011;11753;43.144;24.714;2023-01-25T02:22:12;13.60;;;7.95;;
23169;SDS011;11753;43.144;24.714;2023-01-25T02:24:49;14.93;;;7.80;;
23169;SDS011;11753;43.144;24.714;2023-01-25T02:26:03;14.82;;;8.23;;
23169;SDS011;11753;43.144;24.714;2023-01-25T02:27:05;15.35;;;8.25;;
23169;SDS011;11753;43.144;24.714;2023-01-25T02:30:32;17.23;;;9.48;;
23169;SDS011;11753;43.144;24.714;2023-01-25T02:31:34;19.45;;;10.90;;
23169;SDS011;11753;43.144;24.714;2023-01-25T02:32:36;20.45;;;9.82;;
23169;SDS011;11753;43.144;24.714;2023-01-25T02:33:38;16.33;;;8.07;;
23169;SDS011;11753;43.144;24.714;2023-01-25T02:34:39;16.05;;;8.40;;
23169;SDS011;11753;43.144;24.714;2023-01-25T02:35:42;12.27;;;7.40;;
23169;SDS011;11753;43.144;24.714;2023-01-25T02:37:14;13.60;;;7.22;;
23169;SDS011;11753;43.144;24.714;2023-01-25T02:38:17;14.05;;;7.97;;
23169;SDS011;11753;43.144;24.714;2023-01-25T02:39:20;14.77;;;8.13;;
23169;SDS011;11753;43.144;24.714;2023-01-25T02:40:25;11.20;;;7.35;;
23169;SDS011;11753;43.144;24.714;2023-01-25T02:41:48;13.85;;;8.32;;
23169;SDS011;11753;43.144;24.714;2023-01-25T02:42:49;13.35;;;7.85;;
23169;SDS011;11753;43.144;24.714;2023-01-25T02:43:50;14.32;;;7.15;;
23169;SDS011;11753;43.144;24.714;2023-01-25T02:44:51;12.85;;;7.70;;
23169;SDS011;11753;43.144;24.714;2023-01-25T02:45:54;15.40;;;9.60;;
23169;SDS011;11753;43.144;24.714;2023-01-25T02:47:10;12.88;;;7.63;;
23169;SDS011;11753;43.144;24.714;2023-01-25T02:48:11;11.60;;;7.15;;
23169;SDS011;11753;43.144;24.714;2023-01-25T02:49:13;10.65;;;7.18;;
23169;SDS011;11753;43.144;24.714;2023-01-25T02:50:17;13.57;;;7.55;;
23169;SDS011;11753;43.144;24.714;2023-01-25T02:51:20;10.80;;;7.13;;
23169;SDS011;11753;43.144;24.714;2023-01-25T02:52:24;12.18;;;6.95;;
23169;SDS011;11753;43.144;24.714;2023-01-25T02:53:25;12.07;;;7.30;;
23169;SDS011;11753;43.144;24.714;2023-01-25T02:54:27;12.60;;;8.27;;
23169;SDS011;11753;43.144;24.714;2023-01-25T02:55:28;11.82;;;7.28;;
23169;SDS011;11753;43.144;24.714;2023-01-25T02:56:30;12.32;;;7.72;;
23169;SDS011;11753;43.144;24.714;2023-01-25T02:57:31;13.63;;;8.05;;
23169;SDS011;11753;43.144;24.714;2023-01-25T02:58:33;15.20;;;8.85;;
23169;SDS011;11753;43.144;24.714;2023-01-25T02:59:34;16.63;;;10.88;;
23169;SDS011;11753;43.144;24.714;2023-01-25T03:00:36;20.02;;;13.13;;
23169;SDS011;11753;43.144;24.714;2023-01-25T03:01:38;15.43;;;9.90;;
23169;SDS011;11753;43.144;24.714;2023-01-25T03:02:40;15.02;;;8.95;;
23169;SDS011;11753;43.144;24.714;2023-01-25T03:03:44;12.70;;;8.02;;
23169;SDS011;11753;43.144;24.714;2023-01-25T03:04:46;14.55;;;8.52;;
23169;SDS011;11753;43.144;24.714;2023-01-25T03:05:47;14.15;;;8.13;;
23169;SDS011;11753;43.144;24.714;2023-01-25T03:06:49;14.38;;;7.32;;
23169;SDS011;11753;43.144;24.714;2023-01-25T03:07:51;12.85;;;7.57;;
23169;SDS011;11753;43.144;24.714;2023-01-25T03:08:53;12.05;;;7.35;;
23169;SDS011;11753;43.144;24.714;2023-01-25T03:09:54;11.80;;;6.90;;
23169;SDS011;11753;43.144;24.714;2023-01-25T03:10:56;14.20;;;7.30;;
23169;SDS011;11753;43.144;24.714;2023-01-25T03:11:58;12.73;;;7.40;;
23169;SDS011;11753;43.144;24.714;2023-01-25T03:13:01;11.27;;;7.00;;
23169;SDS011;11753;43.144;24.714;2023-01-25T03:14:02;13.10;;;7.95;;
23169;SDS011;11753;43.144;24.714;2023-01-25T03:15:04;13.80;;;7.65;;
23169;SDS011;11753;43.144;24.714;2023-01-25T03:16:09;13.63;;;7.88;;
23169;SDS011;11753;43.144;24.714;2023-01-25T03:17:12;14.38;;;8.13;;
23169;SDS011;11753;43.144;24.714;2023-01-25T03:18:13;14.57;;;7.32;;
23169;SDS011;11753;43.144;24.714;2023-01-25T03:19:15;11.90;;;7.63;;
23169;SDS011;11753;43.144;24.714;2023-01-25T03:20:16;12.80;;;7.70;;
23169;SDS011;11753;43.144;24.714;2023-01-25T03:21:18;12.45;;;7.50;;
23169;SDS011;11753;43.144;24.714;2023-01-25T03:22:21;12.20;;;7.38;;
23169;SDS011;11753;43.144;24.714;2023-01-25T03:23:22;12.18;;;7.05;;
23169;SDS011;11753;43.144;24.714;2023-01-25T03:24:24;11.45;;;7.20;;
23169;SDS011;11753;43.144;24.714;2023-01-25T03:25:26;12.07;;;7.05;;
23169;SDS011;11753;43.144;24.714;2023-01-25T03:26:29;12.50;;;7.25;;
23169;SDS011;11753;43.144;24.714;2023-01-25T03:27:31;12.02;;;7.82;;
23169;SDS011;11753;43.144;24.714;2023-01-25T03:28:33;11.00;;;7.20;;
23169;SDS011;11753;43.144;24.714;2023-01-25T03:29:35;13.80;;;8.75;;
23169;SDS011;11753;43.144;24.714;2023-01-25T03:30:36;13.90;;;8.85;;
23169;SDS011;11753;43.144;24.714;2023-01-25T03:31:38;17.38;;;8.77;;
23169;SDS011;11753;43.144;24.714;2023-01-25T03:32:43;13.45;;;8.55;;
23169;SDS011;11753;43.144;24.714;2023-01-25T03:33:45;12.70;;;7.97;;
23169;SDS011;11753;43.144;24.714;2023-01-25T03:34:46;12.18;;;6.70;;
23169;SDS011;11753;43.144;24.714;2023-01-25T03:35:51;11.65;;;7.22;;
23169;SDS011;11753;43.144;24.714;2023-01-25T03:36:54;12.20;;;6.85;;
23169;SDS011;11753;43.144;24.714;2023-01-25T03:37:56;13.00;;;8.05;;
23169;SDS011;11753;43.144;24.714;2023-01-25T03:38:57;11.98;;;7.40;;
23169;SDS011;11753;43.144;24.714;2023-01-25T03:39:58;11.15;;;7.72;;
23169;SDS011;11753;43.144;24.714;2023-01-25T03:41:00;16.15;;;8.93;;
23169;SDS011;11753;43.144;24.714;2023-01-25T03:42:01;13.52;;;8.02;;
23169;SDS011;11753;43.144;24.714;2023-01-25T03:43:03;13.32;;;7.78;;
23169;SDS011;11753;43.144;24.714;2023-01-25T03:44:05;12.57;;;7.80;;
23169;SDS011;11753;43.144;24.714;2023-01-25T03:45:06;12.02;;;7.32;;
23169;SDS011;11753;43.144;24.714;2023-01-25T03:46:08;12.50;;;7.32;;
23169;SDS011;11753;43.144;24.714;2023-01-25T03:47:12;11.90;;;7.72;;
23169;SDS011;11753;43.144;24.714;2023-01-25T03:48:13;12.65;;;7.90;;
23169;SDS011;11753;43.144;24.714;2023-01-25T03:49:14;15.45;;;9.27;;
23169;SDS011;11753;43.144;24.714;2023-01-25T03:50:16;16.35;;;9.43;;
23169;SDS011;11753;43.144;24.714;2023-01-25T03:51:18;14.48;;;9.23;;
23169;SDS011;11753;43.144;24.714;2023-01-25T03:52:19;15.13;;;8.82;;
23169;SDS011;11753;43.144;24.714;2023-01-25T03:53:21;13.75;;;8.48;;
23169;SDS011;11753;43.144;24.714;2023-01-25T03:54:28;15.88;;;9.50;;
23169;SDS011;11753;43.144;24.714;2023-01-25T03:55:30;18.02;;;10.35;;
23169;SDS011;11753;43.144;24.714;2023-01-25T03:56:33;18.52;;;10.40;;
23169;SDS011;11753;43.144;24.714;2023-01-25T03:57:36;23.52;;;12.07;;
23169;SDS011;11753;43.144;24.714;2023-01-25T03:58:38;22.00;;;12.13;;
23169;SDS011;11753;43.144;24.714;2023-01-25T03:59:40;18.17;;;10.32;;
23169;SDS011;11753;43.144;24.714;2023-01-25T04:00:42;15.50;;;8.90;;
23169;SDS011;11753;43.144;24.714;2023-01-25T04:01:44;14.57;;;8.45;;
23169;SDS011;11753;43.144;24.714;2023-01-25T04:02:45;13.00;;;8.57;;
23169;SDS011;11753;43.144;24.714;2023-01-25T04:03:47;13.50;;;8.52;;
23169;SDS011;11753;43.144;24.714;2023-01-25T04:04:48;12.43;;;7.47;;
23169;SDS011;11753;43.144;24.714;2023-01-25T04:05:50;15.18;;;9.07;;
23169;SDS011;11753;43.144;24.714;2023-01-25T04:06:52;14.55;;;8.48;;
23169;SDS011;11753;43.144;24.714;2023-01-25T04:07:53;15.68;;;8.23;;
23169;SDS011;11753;43.144;24.714;2023-01-25T04:08:55;12.05;;;8.38;;
23169;SDS011;11753;43.144;24.714;2023-01-25T04:09:57;13.38;;;8.75;;
23169;SDS011;11753;43.144;24.714;2023-01-25T04:11:01;13.20;;;7.80;;
23169;SDS011;11753;43.144;24.714;2023-01-25T04:12:05;12.73;;;7.47;;
23169;SDS011;11753;43.144;24.714;2023-01-25T04:13:06;14.32;;;7.10;;
23169;SDS011;11753;43.144;24.714;2023-01-25T04:14:10;13.55;;;8.30;;
23169;SDS011;11753;43.144;24.714;2023-01-25T04:15:12;14.00;;;7.68;;
23169;SDS011;11753;43.144;24.714;2023-01-25T04:16:14;13.82;;;7.80;;
23169;SDS011;11753;43.144;24.714;2023-01-25T04:17:15;12.48;;;7.95;;
23169;SDS011;11753;43.144;24.714;2023-01-25T04:18:16;14.23;;;8.32;;
23169;SDS011;11753;43.144;24.714;2023-01-25T04:19:17;14.35;;;8.48;;
23169;SDS011;11753;43.144;24.714;2023-01-25T04:20:18;14.82;;;8.98;;
23169;SDS011;11753;43.144;24.714;2023-01-25T04:21:19;15.05;;;9.25;;
23169;SDS011;11753;43.144;24.714;2023-01-25T04:22:20;12.48;;;8.05;;
23169;SDS011;11753;43.144;24.714;2023-01-25T04:23:22;15.93;;;8.95;;
23169;SDS011;11753;43.144;24.714;2023-01-25T04:24:24;15.80;;;8.57;;
23169;SDS011;11753;43.144;24.714;2023-01-25T04:25:24;15.68;;;8.95;;
23169;SDS011;11753;43.144;24.714;2023-01-25T04:26:25;14.77;;;9.43;;
23169;SDS011;11753;43.144;24.714;2023-01-25T04:27:29;19.08;;;10.55;;
23169;SDS011;11753;43.144;24.714;2023-01-25T04:28:33;17.88;;;9.95;;
23169;SDS011;11753;43.144;24.714;2023-01-25T04:29:35;16.88;;;9.60;;
23169;SDS011;11753;43.144;24.714;2023-01-25T04:30:37;17.35;;;10.25;;
23169;SDS011;11753;43.144;24.714;2023-01-25T04:31:38;15.18;;;9.45;;
23169;SDS011;11753;43.144;24.714;2023-01-25T04:32:39;16.48;;;9.38;;
23169;SDS011;11753;43.144;24.714;2023-01-25T04:33:41;14.20;;;8.85;;
23169;SDS011;11753;43.144;24.714;2023-01-25T04:34:42;15.23;;;8.55;;
23169;SDS011;11753;43.144;24.714;2023-01-25T04:35:43;12.98;;;7.97;;
23169;SDS011;11753;43.144;24.714;2023-01-25T04:36:45;12.85;;;7.80;;
23169;SDS011;11753;43.144;24.714;2023-01-25T04:37:54;14.15;;;8.32;;
23169;SDS011;11753;43.144;24.714;2023-01-25T04:38:56;11.90;;;7.72;;
23169;SDS011;11753;43.144;24.714;2023-01-25T04:39:57;12.18;;;7.25;;
23169;SDS011;11753;43.144;24.714;2023-01-25T04:40:59;14.20;;;7.80;;
23169;SDS011;11753;43.144;24.714;2023-01-25T04:42:01;13.52;;;7.90;;
23169;SDS011;11753;43.144;24.714;2023-01-25T04:43:02;15.05;;;7.88;;
23169;SDS011;11753;43.144;24.714;2023-01-25T04:44:04;12.77;;;7.95;;
23169;SDS011;11753;43.144;24.714;2023-01-25T04:45:05;14.82;;;8.65;;
23169;SDS011;11753;43.144;24.714;2023-01-25T04:46:08;14.52;;;8.07;;
23169;SDS011;11753;43.144;24.714;2023-01-25T04:47:10;14.25;;;7.70;;
23169;SDS011;11753;43.144;24.714;2023-01-25T04:48:12;12.73;;;7.82;;
23169;SDS011;11753;43.144;24.714;2023-01-25T04:49:15;13.55;;;8.00;;
23169;SDS011;11753;43.144;24.714;2023-01-25T04:50:18;15.05;;;7.85;;
23169;SDS011;11753;43.144;24.714;2023-01-25T04:51:20;13.10;;;7.82;;
23169;SDS011;11753;43.144;24.714;2023-01-25T04:52:22;14.25;;;7.65;;
23169;SDS011;11753;43.144;24.714;2023-01-25T04:53:23;14.82;;;7.90;;
23169;SDS011;11753;43.144;24.714;2023-01-25T04:54:24;13.40;;;7.00;;
23169;SDS011;11753;43.144;24.714;2023-01-25T04:55:25;13.45;;;8.20;;
23169;SDS011;11753;43.144;24.714;2023-01-25T04:56:27;15.18;;;9.13;;
23169;SDS011;11753;43.144;24.714;2023-01-25T04:57:28;14.80;;;9.40;;
23169;SDS011;11753;43.144;24.714;2023-01-25T04:58:29;15.40;;;9.15;;
23169;SDS011;11753;43.144;24.714;2023-01-25T04:59:30;19.67;;;11.07;;
23169;SDS011;11753;43.144;24.714;2023-01-25T05:00:32;17.23;;;10.32;;
23169;SDS011;11753;43.144;24.714;2023-01-25T05:01:33;15.65;;;9.70;;
23169;SDS011;11753;43.144;24.714;2023-01-25T05:02:34;15.77;;;9.75;;
23169;SDS011;11753;43.144;24.714;2023-01-25T05:03:37;16.13;;;8.38;;
23169;SDS011;11753;43.144;24.714;2023-01-25T05:04:39;13.43;;;8.25;;
23169;SDS011;11753;43.144;24.714;2023-01-25T05:05:43;14.30;;;8.70;;
23169;SDS011;11753;43.144;24.714;2023-01-25T05:06:48;13.95;;;8.25;;
23169;SDS011;11753;43.144;24.714;2023-01-25T05:07:49;15.80;;;8.70;;
23169;SDS011;11753;43.144;24.714;2023-01-25T05:08:50;14.60;;;8.90;;
23169;SDS011;11753;43.144;24.714;2023-01-25T05:09:51;15.93;;;10.15;;
23169;SDS011;11753;43.144;24.714;2023-01-25T05:10:54;18.27;;;9.23;;
23169;SDS011;11753;43.144;24.714;2023-01-25T05:11:56;13.60;;;8.15;;
23169;SDS011;11753;43.144;24.714;2023-01-25T05:12:57;15.93;;;9.52;;
23169;SDS011;11753;43.144;24.714;2023-01-25T05:13:58;17.00;;;9.80;;
23169;SDS011;11753;43.144;24.714;2023-01-25T05:14:59;14.18;;;9.25;;
23169;SDS011;11753;43.144;24.714;2023-01-25T05:16:00;14.98;;;8.48;;
23169;SDS011;11753;43.144;24.714;2023-01-25T05:17:01;14.57;;;8.35;;
23169;SDS011;11753;43.144;24.714;2023-01-25T05:18:03;12.43;;;8.00;;
23169;SDS011;11753;43.144;24.714;2023-01-25T05:19:07;18.77;;;8.13;;
23169;SDS011;11753;43.144;24.714;2023-01-25T05:20:11;13.95;;;7.68;;
23169;SDS011;11753;43.144;24.714;2023-01-25T05:21:13;14.90;;;8.00;;
23169;SDS011;11753;43.144;24.714;2023-01-25T05:22:39;12.20;;;6.80;;
23169;SDS011;11753;43.144;24.714;2023-01-25T05:23:41;14.30;;;9.13;;
23169;SDS011;11753;43.144;24.714;2023-01-25T05:24:44;13.88;;;7.85;;
23169;SDS011;11753;43.144;24.714;2023-01-25T05:25:47;13.82;;;8.77;;
23169;SDS011;11753;43.144;24.714;2023-01-25T05:27:06;16.40;;;9.57;;
23169;SDS011;11753;43.144;24.714;2023-01-25T05:28:09;16.27;;;9.57;;
23169;SDS011;11753;43.144;24.714;2023-01-25T05:29:11;18.00;;;9.70;;
23169;SDS011;11753;43.144;24.714;2023-01-25T05:30:13;16.83;;;9.43;;
23169;SDS011;11753;43.144;24.714;2023-01-25T05:31:15;16.98;;;10.45;;
23169;SDS011;11753;43.144;24.714;2023-01-25T05:32:18;18.48;;;9.73;;
23169;SDS011;11753;43.144;24.714;2023-01-25T05:33:21;19.27;;;9.77;;
23169;SDS011;11753;43.144;24.714;2023-01-25T05:34:24;14.80;;;9.10;;
23169;SDS011;11753;43.144;24.714;2023-01-25T05:35:26;16.25;;;9.20;;
23169;SDS011;11753;43.144;24.714;2023-01-25T05:36:28;15.15;;;9.70;;
23169;SDS011;11753;43.144;24.714;2023-01-25T05:37:29;21.48;;;10.55;;
23169;SDS011;11753;43.144;24.714;2023-01-25T05:38:31;18.63;;;10.82;;
23169;SDS011;11753;43.144;24.714;2023-01-25T05:39:33;17.67;;;10.95;;
23169;SDS011;11753;43.144;24.714;2023-01-25T05:40:35;15.82;;;9.10;;
23169;SDS011;11753;43.144;24.714;2023-01-25T05:41:37;16.42;;;9.70;;
23169;SDS011;11753;43.144;24.714;2023-01-25T05:42:38;16.85;;;9.20;;
23169;SDS011;11753;43.144;24.714;2023-01-25T05:43:46;15.82;;;9.85;;
23169;SDS011;11753;43.144;24.714;2023-01-25T05:44:49;16.98;;;9.98;;
23169;SDS011;11753;43.144;24.714;2023-01-25T05:45:54;18.27;;;10.35;;
23169;SDS011;11753;43.144;24.714;2023-01-25T05:47:00;16.77;;;9.30;;
23169;SDS011;11753;43.144;24.714;2023-01-25T05:48:03;17.25;;;10.40;;
23169;SDS011;11753;43.144;24.714;2023-01-25T05:49:06;18.60;;;11.10;;
23169;SDS011;11753;43.144;24.714;2023-01-25T05:50:10;17.38;;;10.75;;
23169;SDS011;11753;43.144;24.714;2023-01-25T05:51:13;18.13;;;10.73;;
23169;SDS011;11753;43.144;24.714;2023-01-25T05:52:16;28.73;;;17.83;;
23169;SDS011;11753;43.144;24.714;2023-01-25T05:53:24;29.88;;;18.60;;
23169;SDS011;11753;43.144;24.714;2023-01-25T05:55:33;26.63;;;16.08;;
23169;SDS011;11753;43.144;24.714;2023-01-25T05:56:37;25.48;;;15.35;;
23169;SDS011;11753;43.144;24.714;2023-01-25T05:57:45;22.33;;;15.07;;
23169;SDS011;11753;43.144;24.714;2023-01-25T05:58:54;17.40;;;10.70;;
23169;SDS011;11753;43.144;24.714;2023-01-25T06:00:00;16.30;;;9.90;;
23169;SDS011;11753;43.144;24.714;2023-01-25T06:01:08;17.92;;;10.82;;
23169;SDS011;11753;43.144;24.714;2023-01-25T06:02:12;17.70;;;10.75;;
23169;SDS011;11753;43.144;24.714;2023-01-25T06:03:18;16.70;;;10.93;;
23169;SDS011;11753;43.144;24.714;2023-01-25T06:04:23;18.83;;;11.40;;
23169;SDS011;11753;43.144;24.714;2023-01-25T06:05:26;18.52;;;11.23;;
23169;SDS011;11753;43.144;24.714;2023-01-25T06:06:28;14.52;;;9.48;;
23169;SDS011;11753;43.144;24.714;2023-01-25T06:07:35;14.93;;;10.40;;
23169;SDS011;11753;43.144;24.714;2023-01-25T06:08:38;16.55;;;10.00;;
23169;SDS011;11753;43.144;24.714;2023-01-25T06:09:43;21.30;;;11.05;;
23169;SDS011;11753;43.144;24.714;2023-01-25T06:10:49;19.20;;;11.75;;
23169;SDS011;11753;43.144;24.714;2023-01-25T06:11:52;26.08;;;14.65;;
23169;SDS011;11753;43.144;24.714;2023-01-25T06:12:59;18.95;;;12.25;;
23169;SDS011;11753;43.144;24.714;2023-01-25T06:14:03;18.27;;;12.00;;
23169;SDS011;11753;43.144;24.714;2023-01-25T06:15:07;16.58;;;11.32;;
23169;SDS011;11753;43.144;24.714;2023-01-25T06:16:11;17.15;;;11.60;;
23169;SDS011;11753;43.144;24.714;2023-01-25T06:17:14;17.10;;;11.68;;
23169;SDS011;11753;43.144;24.714;2023-01-25T06:18:19;17.80;;;11.20;;
23169;SDS011;11753;43.144;24.714;2023-01-25T06:19:21;18.02;;;12.13;;
23169;SDS011;11753;43.144;24.714;2023-01-25T06:20:26;16.40;;;10.60;;